Time;durP1;ratioP1;P1;durP2;ratioP2;P2;SDS_P1;SDS_P2;PMS_P1;PMS_P2;Temp;Humidity;BMP_temperature;BMP_pressure;BME280_temperature;BME280_humidity;BME280_pressure;Samples;Min_cycle;Max_cycle;Signal;HPM_P1;HPM_P2
2021/08/22 00:01:19;;;;;;;;;7.00;7.00;;;;;;;;5162502;27;45342;-78
2021/08/22 00:03:44;;;;;;;;;6.67;6.67;;;;;;;;5143669;27;45336;-78
2021/08/22 00:06:10;;;;;;;;;7.00;5.00;;;;;;;;5162382;27;45555;-78
2021/08/22 00:08:41;;;;;;;;;5.00;5.00;;;;;;;;5143585;27;47330;-79
2021/08/22 00:11:06;;;;;;;;;6.00;5.00;;;;;;;;5162516;27;45271;-78
2021/08/22 00:13:32;;;;;;;;;7.00;6.33;;;;;;;;5143586;27;45978;-78
2021/08/22 00:15:57;;;;;;;;;6.67;6.67;;;;;;;;5143186;27;45597;-78
2021/08/22 00:18:23;;;;;;;;;6.67;6.67;;;;;;;;5162231;27;45215;-78
2021/08/22 00:20:48;;;;;;;;;4.67;4.67;;;;;;;;5162295;27;45295;-78
2021/08/22 00:23:13;;;;;;;;;7.67;7.00;;;;;;;;5164069;27;45384;-78
2021/08/22 00:25:39;;;;;;;;;7.67;7.67;;;;;;;;5164277;27;45844;-78
2021/08/22 00:28:04;;;;;;;;;7.33;7.33;;;;;;;;5164139;27;47000;-78
2021/08/22 00:30:29;;;;;;;;;8.00;7.33;;;;;;;;5153695;27;45552;-78
2021/08/22 00:32:55;;;;;;;;;6.33;6.33;;;;;;;;5162328;27;45387;-78
2021/08/22 00:35:20;;;;;;;;;8.00;8.00;;;;;;;;5162019;27;45288;-78
2021/08/22 00:37:45;;;;;;;;;6.00;6.00;;;;;;;;5162014;27;45829;-78
2021/08/22 00:40:11;;;;;;;;;6.00;6.00;;;;;;;;5161772;27;45297;-78
2021/08/22 00:42:37;;;;;;;;;7.33;7.33;;;;;;;;5161986;27;45370;-79
2021/08/22 00:45:06;;;;;;;;;7.00;7.00;;;;;;;;5161920;27;45271;-78
2021/08/22 00:47:32;;;;;;;;;7.00;7.00;;;;;;;;5161877;27;46090;-78
2021/08/22 00:50:00;;;;;;;;;6.33;6.33;;;;;;;;5161998;27;45328;-79
2021/08/22 00:52:26;;;;;;;;;6.67;6.67;;;;;;;;5161866;27;45465;-80
2021/08/22 00:54:52;;;;;;;;;8.00;7.00;;;;;;;;5161753;27;45383;-79
2021/08/22 00:57:17;;;;;;;;;7.00;7.00;;;;;;;;5161441;27;45400;-78
2021/08/22 00:59:43;;;;;;;;;6.33;6.33;;;;;;;;5142762;27;45279;-78
2021/08/22 01:02:24;;;;;;;;;8.00;8.00;;;;;;;;5161955;27;45308;-80
2021/08/22 01:05:08;;;;;;;;;8.00;8.00;;;;;;;;5164298;27;45358;-80
2021/08/22 01:07:45;;;;;;;;;8.33;8.33;;;;;;;;5164873;27;45354;-80
2021/08/22 01:10:13;;;;;;;;;7.00;7.00;;;;;;;;5166482;27;45242;-79
2021/08/22 01:12:45;;;;;;;;;8.67;6.67;;;;;;;;5165208;27;45335;-78
2021/08/22 01:15:12;;;;;;;;;6.00;6.00;;;;;;;;5165093;27;45447;-79
2021/08/22 01:17:40;;;;;;;;;6.00;6.00;;;;;;;;5165032;27;46250;-78
2021/08/22 01:20:21;;;;;;;;;8.33;8.33;;;;;;;;5165009;27;45292;-79
2021/08/22 01:22:47;;;;;;;;;7.67;7.67;;;;;;;;5164690;27;45898;-81
2021/08/22 01:25:13;;;;;;;;;7.33;7.00;;;;;;;;5164899;27;45313;-79
2021/08/22 01:27:40;;;;;;;;;7.67;7.67;;;;;;;;5164601;27;45373;-78
2021/08/22 01:30:07;;;;;;;;;8.00;8.00;;;;;;;;5164904;27;45222;-78
2021/08/22 01:32:34;;;;;;;;;7.33;7.00;;;;;;;;5164907;27;45332;-78
2021/08/22 01:34:59;;;;;;;;;8.00;8.00;;;;;;;;5164759;27;45411;-78
2021/08/22 01:37:25;;;;;;;;;7.67;7.67;;;;;;;;5164601;27;45274;-78
2021/08/22 01:39:51;;;;;;;;;7.33;6.67;;;;;;;;5164546;27;45315;-78
2021/08/22 01:42:16;;;;;;;;;7.33;7.33;;;;;;;;5164203;27;45386;-80
2021/08/22 01:44:43;;;;;;;;;8.67;8.33;;;;;;;;5164707;27;45298;-81
2021/08/22 01:47:09;;;;;;;;;8.00;7.67;;;;;;;;5145684;27;47519;-82
2021/08/22 01:49:35;;;;;;;;;8.33;7.67;;;;;;;;5164730;27;45198;-78
2021/08/22 01:52:00;;;;;;;;;7.33;7.33;;;;;;;;5164553;27;45265;-81
2021/08/22 01:54:26;;;;;;;;;8.67;7.00;;;;;;;;5164632;27;45288;-81
2021/08/22 01:56:51;;;;;;;;;9.00;9.00;;;;;;;;5164390;27;45328;-78
2021/08/22 01:59:17;;;;;;;;;8.00;6.33;;;;;;;;5164229;27;45338;-78
2021/08/22 02:01:42;;;;;;;;;10.67;10.00;;;;;;;;5164539;27;45645;-78
2021/08/22 02:04:23;;;;;;;;;9.00;9.00;;;;;;;;5145159;27;45365;-78
2021/08/22 02:06:57;;;;;;;;;8.33;7.33;;;;;;;;5164167;27;46129;-78
2021/08/22 02:09:34;;;;;;;;;7.00;7.00;;;;;;;;5164184;27;45259;-78
2021/08/22 02:12:06;;;;;;;;;7.00;7.00;;;;;;;;5164164;27;45245;-78
2021/08/22 02:14:33;;;;;;;;;9.00;7.67;;;;;;;;5164096;27;45313;-78
2021/08/22 02:16:58;;;;;;;;;10.00;8.33;;;;;;;;5163262;27;46001;-79
2021/08/22 02:19:24;;;;;;;;;9.33;9.33;;;;;;;;5164022;27;45236;-78
2021/08/22 02:21:50;;;;;;;;;9.00;9.00;;;;;;;;5172834;27;45381;-79
2021/08/22 02:24:16;;;;;;;;;8.00;8.00;;;;;;;;5184934;27;45491;-79
2021/08/22 02:26:41;;;;;;;;;4.00;3.00;;;;;;;;5185002;27;45959;-79
2021/08/22 02:29:07;;;;;;;;;7.33;7.33;;;;;;;;5184866;27;45565;-79
2021/08/22 02:31:33;;;;;;;;;8.00;8.00;;;;;;;;5165312;27;45368;-81
2021/08/22 02:33:58;;;;;;;;;8.00;7.33;;;;;;;;5163796;27;45363;-81
2021/08/22 02:36:25;;;;;;;;;10.00;10.00;;;;;;;;5163804;27;45579;-81
2021/08/22 02:38:50;;;;;;;;;9.00;8.00;;;;;;;;5163608;27;45318;-78
2021/08/22 02:41:16;;;;;;;;;8.00;8.00;;;;;;;;5163761;27;45281;-79
2021/08/22 02:43:41;;;;;;;;;8.33;8.33;;;;;;;;5163381;27;45323;-79
2021/08/22 02:46:07;;;;;;;;;7.67;7.33;;;;;;;;5163559;27;46422;-79
2021/08/22 02:48:33;;;;;;;;;8.67;7.67;;;;;;;;5163624;27;45215;-79
2021/08/22 02:50:58;;;;;;;;;8.00;8.00;;;;;;;;5163875;27;45230;-79
2021/08/22 02:53:23;;;;;;;;;8.67;8.67;;;;;;;;5163406;27;45438;-79
2021/08/22 02:55:49;;;;;;;;;8.00;8.00;;;;;;;;5163659;27;45283;-79
2021/08/22 02:58:14;;;;;;;;;8.00;7.00;;;;;;;;5163468;27;45235;-81
2021/08/22 03:00:39;;;;;;;;;7.67;7.67;;;;;;;;5144927;27;45189;-82
2021/08/22 03:03:05;;;;;;;;;8.33;8.33;;;;;;;;5163375;27;45232;-81
2021/08/22 03:05:30;;;;;;;;;5.67;5.67;;;;;;;;5163356;27;46400;-81
2021/08/22 03:07:55;;;;;;;;;6.00;6.00;;;;;;;;5163327;27;45153;-79
2021/08/22 03:10:21;;;;;;;;;7.33;7.33;;;;;;;;5164697;27;45345;-79
2021/08/22 03:12:46;;;;;;;;;6.00;6.00;;;;;;;;5145196;27;46890;-79
2021/08/22 03:15:12;;;;;;;;;6.00;5.67;;;;;;;;5144442;27;46687;-78
2021/08/22 03:17:37;;;;;;;;;4.00;4.00;;;;;;;;5163670;27;45309;-80
2021/08/22 03:20:03;;;;;;;;;4.67;4.67;;;;;;;;5163963;27;45230;-79
2021/08/22 03:22:29;;;;;;;;;6.67;6.00;;;;;;;;5140449;27;45953;-79
2021/08/22 03:24:54;;;;;;;;;6.67;6.00;;;;;;;;5142099;27;45461;-78
2021/08/22 03:27:19;;;;;;;;;7.33;7.33;;;;;;;;5141204;27;45349;-81
2021/08/22 03:29:45;;;;;;;;;5.00;5.00;;;;;;;;5146147;27;45753;-79
2021/08/22 03:32:10;;;;;;;;;8.00;7.67;;;;;;;;5144668;27;45913;-78
2021/08/22 03:34:35;;;;;;;;;4.67;4.67;;;;;;;;5145094;27;46419;-79
2021/08/22 03:37:01;;;;;;;;;6.00;6.00;;;;;;;;5144006;27;45313;-80
2021/08/22 03:39:26;;;;;;;;;8.00;7.00;;;;;;;;5163277;27;45387;-79
2021/08/22 03:41:51;;;;;;;;;5.67;4.67;;;;;;;;5143807;27;46896;-78
2021/08/22 03:44:17;;;;;;;;;9.00;6.67;;;;;;;;5162664;27;45304;-80
2021/08/22 03:46:42;;;;;;;;;8.33;6.33;;;;;;;;5162811;27;45304;-79
2021/08/22 03:49:07;;;;;;;;;6.67;6.67;;;;;;;;5144588;27;45446;-79
2021/08/22 03:51:33;;;;;;;;;4.67;4.67;;;;;;;;5163286;27;45287;-80
2021/08/22 03:53:58;;;;;;;;;8.67;8.00;;;;;;;;5144813;27;48245;-83
2021/08/22 03:56:24;;;;;;;;;7.67;6.33;;;;;;;;5162721;27;45312;-80
2021/08/22 03:58:49;;;;;;;;;9.00;9.00;;;;;;;;5143798;27;45254;-78
2021/08/22 04:01:14;;;;;;;;;6.67;6.00;;;;;;;;5145025;27;45754;-81
2021/08/22 04:03:40;;;;;;;;;7.00;7.00;;;;;;;;5144014;27;47555;-80
2021/08/22 04:06:06;;;;;;;;;8.00;6.33;;;;;;;;5143650;27;45352;-79
2021/08/22 04:08:32;;;;;;;;;8.00;5.33;;;;;;;;5162845;27;45219;-80
2021/08/22 04:10:58;;;;;;;;;8.00;8.00;;;;;;;;5164375;27;45360;-80
2021/08/22 04:13:24;;;;;;;;;6.33;6.33;;;;;;;;5143174;27;46076;-80
2021/08/22 04:15:49;;;;;;;;;5.67;5.33;;;;;;;;5162562;27;45284;-80
2021/08/22 04:18:15;;;;;;;;;6.33;6.33;;;;;;;;5162668;27;45383;-80
2021/08/22 04:20:41;;;;;;;;;7.67;7.67;;;;;;;;5162345;27;45305;-80
2021/08/22 04:23:07;;;;;;;;;8.33;8.33;;;;;;;;5181887;27;45364;-80
2021/08/22 04:25:32;;;;;;;;;6.67;6.67;;;;;;;;5183474;27;45318;-79
2021/08/22 04:27:58;;;;;;;;;6.67;6.67;;;;;;;;5183301;27;45522;-79
2021/08/22 04:30:23;;;;;;;;;7.00;7.00;;;;;;;;5173653;27;45481;-79
2021/08/22 04:32:48;;;;;;;;;7.00;6.33;;;;;;;;5162258;27;45434;-79
2021/08/22 04:35:14;;;;;;;;;9.00;9.00;;;;;;;;5162638;27;45298;-80
2021/08/22 04:37:41;;;;;;;;;6.00;6.00;;;;;;;;5162209;27;45729;-80
2021/08/22 04:40:07;;;;;;;;;7.00;6.00;;;;;;;;5145900;27;45658;-80
2021/08/22 04:42:32;;;;;;;;;7.33;7.00;;;;;;;;5165428;27;45692;-80
2021/08/22 04:44:58;;;;;;;;;7.67;7.33;;;;;;;;5166465;27;45347;-80
2021/08/22 04:47:23;;;;;;;;;7.00;6.00;;;;;;;;5165735;27;45483;-80
2021/08/22 04:49:49;;;;;;;;;7.33;6.33;;;;;;;;5165667;27;45417;-81
2021/08/22 04:52:15;;;;;;;;;8.00;8.00;;;;;;;;5165353;27;45410;-80
2021/08/22 04:54:41;;;;;;;;;9.00;8.33;;;;;;;;5165553;27;45366;-79
2021/08/22 04:57:06;;;;;;;;;9.00;9.00;;;;;;;;5146617;27;45304;-80
2021/08/22 04:59:31;;;;;;;;;8.33;8.00;;;;;;;;5147016;27;46665;-80
2021/08/22 05:01:57;;;;;;;;;8.67;7.67;;;;;;;;5165496;27;45347;-80
2021/08/22 05:04:22;;;;;;;;;8.67;8.00;;;;;;;;5165896;27;45373;-81
2021/08/22 05:06:47;;;;;;;;;8.00;6.67;;;;;;;;5167023;27;45258;-79
2021/08/22 05:09:13;;;;;;;;;6.67;6.67;;;;;;;;5146346;27;46376;-81
2021/08/22 05:11:38;;;;;;;;;7.33;7.00;;;;;;;;5146866;27;45491;-79
2021/08/22 05:14:03;;;;;;;;;9.67;8.00;;;;;;;;5146264;27;45585;-81
2021/08/22 05:16:29;;;;;;;;;9.00;8.00;;;;;;;;5146640;27;45278;-79
2021/08/22 05:18:54;;;;;;;;;10.33;9.67;;;;;;;;5165868;27;45231;-81
2021/08/22 05:21:19;;;;;;;;;8.00;8.00;;;;;;;;5144320;27;46870;-79
2021/08/22 05:23:45;;;;;;;;;11.00;9.00;;;;;;;;5143624;27;45476;-80
2021/08/22 05:26:10;;;;;;;;;13.67;10.67;;;;;;;;5142946;27;45502;-79
2021/08/22 05:28:35;;;;;;;;;8.00;8.00;;;;;;;;5142270;27;45594;-80
2021/08/22 05:31:01;;;;;;;;;8.00;6.67;;;;;;;;5159499;27;45438;-80
2021/08/22 05:33:26;;;;;;;;;6.00;6.00;;;;;;;;5166056;27;45187;-80
2021/08/22 05:35:51;;;;;;;;;8.33;7.67;;;;;;;;5165606;27;45333;-80
2021/08/22 05:38:16;;;;;;;;;9.00;7.00;;;;;;;;5165200;27;45309;-80
2021/08/22 05:40:42;;;;;;;;;6.67;5.00;;;;;;;;5164732;27;45309;-80
2021/08/22 05:43:07;;;;;;;;;10.00;7.67;;;;;;;;5145519;27;45384;-79
2021/08/22 05:45:32;;;;;;;;;8.00;8.00;;;;;;;;5164955;27;45303;-80
2021/08/22 05:47:58;;;;;;;;;7.33;6.33;;;;;;;;5165752;27;45291;-79
2021/08/22 05:50:23;;;;;;;;;8.33;8.00;;;;;;;;5144568;27;48029;-79
2021/08/22 05:52:48;;;;;;;;;8.00;6.67;;;;;;;;5165164;27;45308;-78
2021/08/22 05:55:15;;;;;;;;;7.33;7.33;;;;;;;;5146386;27;45287;-80
2021/08/22 05:57:40;;;;;;;;;7.33;6.33;;;;;;;;5145535;27;45334;-80
2021/08/22 06:00:06;;;;;;;;;6.67;6.67;;;;;;;;5146688;27;46567;-80
2021/08/22 06:02:31;;;;;;;;;6.67;6.00;;;;;;;;5164711;27;45239;-80
2021/08/22 06:04:57;;;;;;;;;6.67;6.00;;;;;;;;5165543;27;45328;-80
2021/08/22 06:07:23;;;;;;;;;8.00;5.67;;;;;;;;5147626;27;45548;-80
2021/08/22 06:09:49;;;;;;;;;8.00;7.33;;;;;;;;5165802;27;45998;-80
2021/08/22 06:12:15;;;;;;;;;6.67;5.67;;;;;;;;5147466;27;45524;-80
2021/08/22 06:14:41;;;;;;;;;6.00;6.00;;;;;;;;5165537;27;45320;-80
2021/08/22 06:17:06;;;;;;;;;6.00;6.00;;;;;;;;5165135;27;45163;-81
2021/08/22 06:19:31;;;;;;;;;9.67;8.33;;;;;;;;5165654;27;45320;-80
2021/08/22 06:21:57;;;;;;;;;6.67;5.67;;;;;;;;5173441;27;45359;-81
2021/08/22 06:24:22;;;;;;;;;8.67;8.67;;;;;;;;5185179;27;45316;-82
2021/08/22 06:26:47;;;;;;;;;8.00;7.00;;;;;;;;5184866;27;45315;-83
2021/08/22 06:29:12;;;;;;;;;10.00;8.00;;;;;;;;5166125;27;47777;-83
2021/08/22 06:31:38;;;;;;;;;6.00;6.00;;;;;;;;5164297;27;45286;-84
2021/08/22 06:34:06;;;;;;;;;5.00;5.00;;;;;;;;5145557;27;45301;-83
2021/08/22 06:36:32;;;;;;;;;10.33;7.00;;;;;;;;5165772;27;45312;-81
2021/08/22 06:38:57;;;;;;;;;10.33;8.00;;;;;;;;5167376;27;45425;-81
2021/08/22 06:41:22;;;;;;;;;9.33;7.67;;;;;;;;5167976;27;45269;-81
2021/08/22 06:43:48;;;;;;;;;7.00;7.00;;;;;;;;5164518;27;45515;-82
2021/08/22 06:46:13;;;;;;;;;9.00;9.00;;;;;;;;5144849;27;45501;-82
2021/08/22 06:48:38;;;;;;;;;8.00;8.00;;;;;;;;5165901;27;45911;-81
2021/08/22 06:51:04;;;;;;;;;8.33;7.67;;;;;;;;5167657;27;45835;-83
2021/08/22 06:53:29;;;;;;;;;10.33;8.00;;;;;;;;5163711;27;45445;-82
2021/08/22 06:55:54;;;;;;;;;8.00;8.00;;;;;;;;5144811;27;45567;-81
2021/08/22 06:58:21;;;;;;;;;8.00;7.00;;;;;;;;5144828;27;45362;-81
2021/08/22 07:00:47;;;;;;;;;6.00;5.33;;;;;;;;5164298;27;45248;-82
2021/08/22 07:03:12;;;;;;;;;7.33;7.00;;;;;;;;5163639;27;45240;-80
2021/08/22 07:05:37;;;;;;;;;7.67;6.33;;;;;;;;5164790;27;45489;-82
2021/08/22 07:08:03;;;;;;;;;6.00;6.00;;;;;;;;5164629;27;45205;-80
2021/08/22 07:10:28;;;;;;;;;6.00;6.00;;;;;;;;5164053;27;45222;-81
2021/08/22 07:12:54;;;;;;;;;6.00;6.00;;;;;;;;5163676;27;45217;-81
2021/08/22 07:15:19;;;;;;;;;6.00;6.00;;;;;;;;5148760;27;45449;-81
2021/08/22 07:17:44;;;;;;;;;6.00;6.00;;;;;;;;5140843;27;46699;-82
2021/08/22 07:20:16;;;;;;;;;6.67;6.67;;;;;;;;5145532;27;45368;-82
2021/08/22 07:22:42;;;;;;;;;7.00;6.33;;;;;;;;5139464;27;45258;-82
2021/08/22 07:25:08;;;;;;;;;5.00;5.00;;;;;;;;5135795;27;45615;-81
2021/08/22 07:27:42;;;;;;;;;7.00;6.33;;;;;;;;5147978;27;46283;-81
2021/08/22 07:30:08;;;;;;;;;6.00;6.00;;;;;;;;5137837;27;45301;-82
2021/08/22 07:32:33;;;;;;;;;6.00;4.67;;;;;;;;5139304;27;45521;-81
2021/08/22 07:35:01;;;;;;;;;4.33;4.00;;;;;;;;5132636;27;46453;-82
2021/08/22 07:37:26;;;;;;;;;4.33;4.33;;;;;;;;5123768;27;45585;-76
2021/08/22 07:39:54;;;;;;;;;6.00;6.00;;;;;;;;5153435;27;45496;-79
2021/08/22 07:42:19;;;;;;;;;6.67;5.00;;;;;;;;5137057;27;45354;-79
2021/08/22 07:44:50;;;;;;;;;5.00;5.00;;;;;;;;5155000;27;45453;-78
2021/08/22 07:47:16;;;;;;;;;5.33;5.33;;;;;;;;5155937;27;46130;-80
2021/08/22 07:49:41;;;;;;;;;5.67;5.67;;;;;;;;5134028;27;45448;-80
2021/08/22 07:52:06;;;;;;;;;8.33;7.00;;;;;;;;5130025;27;45374;-80
2021/08/22 07:54:32;;;;;;;;;5.33;5.33;;;;;;;;5148112;27;45409;-81
2021/08/22 07:56:57;;;;;;;;;4.67;4.00;;;;;;;;5150543;27;46392;-83
2021/08/22 07:59:33;;;;;;;;;5.67;5.67;;;;;;;;5146441;27;45451;-79
2021/08/22 08:01:58;;;;;;;;;5.67;5.33;;;;;;;;5145653;27;45759;-78
2021/08/22 08:04:24;;;;;;;;;6.67;5.33;;;;;;;;5143092;27;45442;-75
2021/08/22 08:06:50;;;;;;;;;5.00;4.33;;;;;;;;5148317;27;45397;-82
2021/08/22 08:09:15;;;;;;;;;5.33;5.00;;;;;;;;5142915;27;45195;-77
2021/08/22 08:11:40;;;;;;;;;6.00;6.00;;;;;;;;5146605;27;45693;-75
2021/08/22 08:14:06;;;;;;;;;6.67;5.67;;;;;;;;5133129;27;45654;-77
2021/08/22 08:16:34;;;;;;;;;4.00;4.00;;;;;;;;5131989;27;47839;-76
2021/08/22 08:19:00;;;;;;;;;4.33;4.33;;;;;;;;5134442;27;45486;-75
2021/08/22 08:21:25;;;;;;;;;5.67;5.67;;;;;;;;5146839;27;45462;-78
2021/08/22 08:23:51;;;;;;;;;3.67;3.67;;;;;;;;5131152;27;46070;-79
2021/08/22 08:26:16;;;;;;;;;3.00;3.00;;;;;;;;5131652;27;48172;-79
2021/08/22 08:28:41;;;;;;;;;4.00;4.00;;;;;;;;5130383;27;45555;-78
2021/08/22 08:31:07;;;;;;;;;3.00;3.00;;;;;;;;5134468;27;45397;-78
2021/08/22 08:33:35;;;;;;;;;3.67;3.67;;;;;;;;5129769;27;45660;-78
2021/08/22 08:36:00;;;;;;;;;3.33;3.33;;;;;;;;5124599;27;45740;-78
2021/08/22 08:38:26;;;;;;;;;3.67;3.67;;;;;;;;5129201;27;45357;-74
2021/08/22 08:40:52;;;;;;;;;4.00;4.00;;;;;;;;5144690;27;45380;-76
2021/08/22 08:43:21;;;;;;;;;3.33;3.33;;;;;;;;5147530;27;45362;-75
2021/08/22 08:45:46;;;;;;;;;3.00;3.00;;;;;;;;5131728;27;47440;-76
2021/08/22 08:48:14;;;;;;;;;3.00;3.00;;;;;;;;5150602;27;45362;-77
2021/08/22 08:50:46;;;;;;;;;3.00;3.00;;;;;;;;5148451;27;45467;-76
2021/08/22 08:53:22;;;;;;;;;5.00;4.00;;;;;;;;5133428;27;45442;-76
2021/08/22 08:55:48;;;;;;;;;5.33;4.00;;;;;;;;5142859;27;45881;-75
2021/08/22 08:58:14;;;;;;;;;2.67;2.67;;;;;;;;5136867;27;46409;-74
2021/08/22 09:00:42;;;;;;;;;3.00;3.00;;;;;;;;5155041;27;45372;-75
2021/08/22 09:03:07;;;;;;;;;2.33;2.33;;;;;;;;5130940;27;45637;-75
2021/08/22 09:05:38;;;;;;;;;4.00;3.33;;;;;;;;5145616;27;45986;-77
2021/08/22 09:08:22;;;;;;;;;4.00;4.00;;;;;;;;5144639;27;45484;-78
2021/08/22 09:11:06;;;;;;;;;5.33;5.33;;;;;;;;5146873;27;45579;-79
2021/08/22 09:13:50;;;;;;;;;6.00;6.00;;;;;;;;5164588;27;45574;-79
2021/08/22 09:16:15;;;;;;;;;6.33;4.00;;;;;;;;5164848;27;46246;-79
2021/08/22 09:19:00;;;;;;;;;4.00;4.00;;;;;;;;5164095;27;45382;-81
2021/08/22 09:21:42;;;;;;;;;5.33;4.00;;;;;;;;5164286;27;45290;-77
2021/08/22 09:24:26;;;;;;;;;4.00;4.00;;;;;;;;5185936;27;45348;-79
2021/08/22 09:27:10;;;;;;;;;5.00;4.67;;;;;;;;5166598;27;46612;-79
2021/08/22 09:29:56;;;;;;;;;3.33;3.33;;;;;;;;5164728;27;45295;-79
2021/08/22 09:32:40;;;;;;;;;2.33;2.33;;;;;;;;5138040;27;45456;-79
2021/08/22 09:35:15;;;;;;;;;3.33;1.67;;;;;;;;5126283;27;45287;-83
2021/08/22 09:38:01;;;;;;;;;3.00;2.00;;;;;;;;5136173;27;47218;-82
2021/08/22 09:40:35;;;;;;;;;4.33;4.33;;;;;;;;5131365;27;45836;-83
2021/08/22 09:43:19;;;;;;;;;3.33;3.33;;;;;;;;5146161;27;45267;-82
2021/08/22 09:46:03;;;;;;;;;3.00;3.00;;;;;;;;5165778;27;45713;-83
2021/08/22 09:48:47;;;;;;;;;4.67;3.00;;;;;;;;5164301;27;46828;-83
2021/08/22 09:51:31;;;;;;;;;7.33;6.00;;;;;;;;5146642;27;45294;-84
2021/08/22 09:54:15;;;;;;;;;3.00;2.67;;;;;;;;5146121;27;45477;-83
2021/08/22 09:56:59;;;;;;;;;4.00;4.00;;;;;;;;5164391;27;45306;-83
2021/08/22 09:59:35;;;;;;;;;3.67;3.00;;;;;;;;5146882;27;47924;-82
2021/08/22 10:02:03;;;;;;;;;3.67;3.33;;;;;;;;5135503;27;46402;-77
2021/08/22 10:04:52;;;;;;;;;2.00;1.00;;;;;;;;5136930;27;45504;-78
2021/08/22 10:07:29;;;;;;;;;4.00;3.00;;;;;;;;5096787;27;45478;-77
2021/08/22 10:10:10;;;;;;;;;2.33;2.00;;;;;;;;5140471;27;45947;-77
2021/08/22 10:12:36;;;;;;;;;3.00;3.00;;;;;;;;5147604;27;45327;-82
2021/08/22 10:15:01;;;;;;;;;3.67;3.67;;;;;;;;5129038;27;45350;-82
2021/08/22 10:17:27;;;;;;;;;3.00;3.00;;;;;;;;5147533;27;45596;-81
2021/08/22 10:19:53;;;;;;;;;2.67;2.67;;;;;;;;5151213;27;45456;-81
2021/08/22 10:22:19;;;;;;;;;3.00;3.00;;;;;;;;5130592;27;45518;-82
2021/08/22 10:24:48;;;;;;;;;3.33;3.33;;;;;;;;5132638;27;45642;-78
2021/08/22 10:27:32;;;;;;;;;4.00;4.00;;;;;;;;5126437;27;45356;-78
2021/08/22 10:29:58;;;;;;;;;2.33;2.33;;;;;;;;5140914;27;45337;-78
2021/08/22 10:32:24;;;;;;;;;4.67;3.00;;;;;;;;5128130;27;45949;-76
2021/08/22 10:35:08;;;;;;;;;3.00;2.00;;;;;;;;5129518;27;45715;-77
2021/08/22 10:37:34;;;;;;;;;1.33;1.33;;;;;;;;5133154;27;46012;-77
2021/08/22 10:40:19;;;;;;;;;3.67;3.00;;;;;;;;5123573;27;45967;-79
2021/08/22 10:42:45;;;;;;;;;2.00;2.00;;;;;;;;5123445;27;45501;-77
2021/08/22 10:45:10;;;;;;;;;1.00;1.00;;;;;;;;5137197;27;45790;-78
2021/08/22 10:47:35;;;;;;;;;2.00;2.00;;;;;;;;5122332;27;45502;-78
2021/08/22 10:50:01;;;;;;;;;3.33;2.00;;;;;;;;5121240;27;45975;-77
2021/08/22 10:52:30;;;;;;;;;3.33;3.33;;;;;;;;5124239;27;45527;-82
2021/08/22 10:55:10;;;;;;;;;3.33;3.00;;;;;;;;5124384;27;45470;-83
2021/08/22 10:57:42;;;;;;;;;2.00;2.00;;;;;;;;5129733;27;46838;-84
2021/08/22 11:00:16;;;;;;;;;3.00;3.00;;;;;;;;5130421;27;46149;-83
2021/08/22 11:02:41;;;;;;;;;1.33;1.33;;;;;;;;5122815;27;45277;-82
2021/08/22 11:05:14;;;;;;;;;2.00;2.00;;;;;;;;5133167;27;45408;-79
2021/08/22 11:07:39;;;;;;;;;2.00;2.00;;;;;;;;5123105;27;45182;-79
2021/08/22 11:10:10;;;;;;;;;1.67;1.67;;;;;;;;5132763;27;46399;-76
2021/08/22 11:12:37;;;;;;;;;2.00;2.00;;;;;;;;5123469;27;45293;-77
2021/08/22 11:15:06;;;;;;;;;1.00;1.00;;;;;;;;5129128;27;45438;-77
2021/08/22 11:17:32;;;;;;;;;1.00;1.00;;;;;;;;5123960;27;45254;-79
2021/08/22 11:20:07;;;;;;;;;0.33;0.33;;;;;;;;5128052;27;46146;-79
2021/08/22 11:22:33;;;;;;;;;1.00;1.00;;;;;;;;5132337;27;45592;-77
2021/08/22 11:24:58;;;;;;;;;2.00;2.00;;;;;;;;5124066;27;45490;-76
2021/08/22 11:27:25;;;;;;;;;1.00;1.00;;;;;;;;5143795;27;45484;-76
2021/08/22 11:29:54;;;;;;;;;2.33;0.67;;;;;;;;5141798;27;46181;-78
2021/08/22 11:32:19;;;;;;;;;2.33;2.00;;;;;;;;5154577;27;45364;-77
2021/08/22 11:34:44;;;;;;;;;0.00;0.00;;;;;;;;5148401;27;45465;-78
2021/08/22 11:37:16;;;;;;;;;2.00;1.33;;;;;;;;5156363;27;45422;-80
2021/08/22 11:39:44;;;;;;;;;2.00;0.67;;;;;;;;5155654;27;45321;-81
2021/08/22 11:42:10;;;;;;;;;1.67;1.67;;;;;;;;5155921;27;45442;-82
2021/08/22 11:44:35;;;;;;;;;0.33;0.33;;;;;;;;5140092;27;45442;-79
2021/08/22 11:47:01;;;;;;;;;2.00;2.00;;;;;;;;5138161;27;45445;-82
2021/08/22 11:49:29;;;;;;;;;0.67;0.67;;;;;;;;5135353;27;47130;-81
2021/08/22 11:51:55;;;;;;;;;2.00;1.00;;;;;;;;5130983;27;45429;-81
2021/08/22 11:54:21;;;;;;;;;1.67;1.67;;;;;;;;5124966;27;45439;-81
2021/08/22 11:56:46;;;;;;;;;1.00;1.00;;;;;;;;5127766;27;46510;-81
2021/08/22 11:59:28;;;;;;;;;1.00;1.00;;;;;;;;5154785;27;46145;-81
2021/08/22 12:02:12;;;;;;;;;3.67;2.67;;;;;;;;5131475;27;45396;-82
2021/08/22 12:04:37;;;;;;;;;2.00;2.00;;;;;;;;5151906;27;45464;-84
2021/08/22 12:07:05;;;;;;;;;2.67;2.00;;;;;;;;5131362;27;45926;-85
2021/08/22 12:09:30;;;;;;;;;2.33;2.33;;;;;;;;5136186;27;48245;-83
2021/08/22 12:11:56;;;;;;;;;3.00;1.33;;;;;;;;5143941;27;45303;-86
2021/08/22 12:14:21;;;;;;;;;2.00;2.00;;;;;;;;5143601;27;45321;-86
2021/08/22 12:16:56;;;;;;;;;3.33;3.33;;;;;;;;5149369;27;45271;-85
2021/08/22 12:19:26;;;;;;;;;2.67;2.00;;;;;;;;5147781;27;45425;-82
2021/08/22 12:21:52;;;;;;;;;1.00;1.00;;;;;;;;5129446;27;45549;-87
2021/08/22 12:24:22;;;;;;;;;2.00;2.00;;;;;;;;5144296;27;45442;-86
2021/08/22 12:26:49;;;;;;;;;2.33;2.33;;;;;;;;5147320;27;45608;-82
2021/08/22 12:29:14;;;;;;;;;3.67;2.33;;;;;;;;5152678;27;45505;-86
2021/08/22 12:31:42;;;;;;;;;4.00;3.00;;;;;;;;5157206;27;46015;-82
2021/08/22 12:34:08;;;;;;;;;2.00;2.00;;;;;;;;5141010;27;45571;-84
2021/08/22 12:36:38;;;;;;;;;2.67;2.67;;;;;;;;5147899;27;45977;-79
2021/08/22 12:39:05;;;;;;;;;2.00;2.00;;;;;;;;5151879;27;46540;-80
2021/08/22 12:41:32;;;;;;;;;2.00;2.00;;;;;;;;5133837;27;45799;-89
2021/08/22 12:43:58;;;;;;;;;0.33;0.33;;;;;;;;5134249;27;45286;-81
2021/08/22 12:46:24;;;;;;;;;3.67;3.67;;;;;;;;5142783;27;45495;-84
2021/08/22 12:48:50;;;;;;;;;1.67;1.67;;;;;;;;5133133;27;46856;-86
2021/08/22 12:51:16;;;;;;;;;2.00;1.00;;;;;;;;5141408;27;45287;-81
2021/08/22 12:53:41;;;;;;;;;1.00;1.00;;;;;;;;5159028;27;45408;-83
2021/08/22 12:56:07;;;;;;;;;1.33;1.00;;;;;;;;5138423;27;45781;-81
2021/08/22 12:58:32;;;;;;;;;1.00;1.00;;;;;;;;5145263;27;46137;-77
2021/08/22 13:00:57;;;;;;;;;2.00;1.67;;;;;;;;5143838;27;45955;-80
2021/08/22 13:03:23;;;;;;;;;1.00;1.00;;;;;;;;5150723;27;45245;-77
2021/08/22 13:05:48;;;;;;;;;2.00;0.33;;;;;;;;5138577;27;46313;-87
2021/08/22 13:08:14;;;;;;;;;1.00;1.00;;;;;;;;5136418;27;46994;-83
2021/08/22 13:10:39;;;;;;;;;1.00;1.00;;;;;;;;5137817;27;45967;-82
2021/08/22 13:13:07;;;;;;;;;1.00;1.00;;;;;;;;5130081;27;45427;-83
2021/08/22 13:15:35;;;;;;;;;1.33;1.33;;;;;;;;5147930;27;45486;-84
2021/08/22 13:18:01;;;;;;;;;1.00;1.00;;;;;;;;5133540;27;47330;-80
2021/08/22 13:20:28;;;;;;;;;1.00;1.00;;;;;;;;5134858;27;45490;-82
2021/08/22 13:22:55;;;;;;;;;1.00;0.00;;;;;;;;5129080;27;45520;-82
2021/08/22 13:25:21;;;;;;;;;1.00;1.00;;;;;;;;5132756;27;45433;-77
2021/08/22 13:27:46;;;;;;;;;1.00;1.00;;;;;;;;5147438;27;45454;-79
2021/08/22 13:30:14;;;;;;;;;1.33;1.33;;;;;;;;5131738;27;45861;-77
2021/08/22 13:32:39;;;;;;;;;1.33;1.33;;;;;;;;5146857;27;45443;-77
2021/08/22 13:35:07;;;;;;;;;2.00;2.00;;;;;;;;5131832;27;46598;-77
2021/08/22 13:37:33;;;;;;;;;1.00;1.00;;;;;;;;5136876;27;46649;-77
2021/08/22 13:39:58;;;;;;;;;2.00;2.00;;;;;;;;5156352;27;45399;-76
2021/08/22 13:42:26;;;;;;;;;2.00;2.00;;;;;;;;5133568;27;46024;-76
2021/08/22 13:44:52;;;;;;;;;3.00;1.67;;;;;;;;5140153;27;46006;-77
2021/08/22 13:47:17;;;;;;;;;1.00;1.00;;;;;;;;5140177;27;45796;-76
2021/08/22 13:49:43;;;;;;;;;1.00;1.00;;;;;;;;5137742;27;45558;-77
2021/08/22 13:52:08;;;;;;;;;2.00;2.00;;;;;;;;5154827;27;45725;-77
2021/08/22 13:54:33;;;;;;;;;1.00;1.00;;;;;;;;5140514;27;46153;-79
2021/08/22 13:56:59;;;;;;;;;1.33;1.33;;;;;;;;5136324;27;46883;-79
2021/08/22 13:59:24;;;;;;;;;1.00;1.00;;;;;;;;5135947;27;45428;-78
2021/08/22 14:01:50;;;;;;;;;1.00;1.00;;;;;;;;5129487;27;45384;-83
2021/08/22 14:04:21;;;;;;;;;2.00;1.00;;;;;;;;5152353;27;45521;-84
2021/08/22 14:06:46;;;;;;;;;0.00;0.00;;;;;;;;5149880;27;45524;-76
2021/08/22 14:09:12;;;;;;;;;0.00;0.00;;;;;;;;5143475;27;45741;-76
2021/08/22 14:11:46;;;;;;;;;2.00;1.00;;;;;;;;5142605;27;45426;-78
2021/08/22 14:14:22;;;;;;;;;2.00;2.00;;;;;;;;5125993;27;45760;-82
2021/08/22 14:16:56;;;;;;;;;1.67;1.67;;;;;;;;5144183;27;47967;-76
2021/08/22 14:19:21;;;;;;;;;0.33;0.33;;;;;;;;5132356;27;45947;-76
2021/08/22 14:21:49;;;;;;;;;1.00;1.00;;;;;;;;5134571;27;45506;-82
2021/08/22 14:24:14;;;;;;;;;1.00;0.67;;;;;;;;5133294;27;45369;-78
2021/08/22 14:26:40;;;;;;;;;0.67;0.67;;;;;;;;5135664;27;48245;-79
2021/08/22 14:29:05;;;;;;;;;0.00;0.00;;;;;;;;5159838;27;45322;-80
2021/08/22 14:31:31;;;;;;;;;0.67;0.67;;;;;;;;5143497;27;45395;-78
2021/08/22 14:34:07;;;;;;;;;2.00;2.00;;;;;;;;5131946;27;46215;-75
2021/08/22 14:36:39;;;;;;;;;1.00;1.00;;;;;;;;5139541;27;46268;-76
2021/08/22 14:39:05;;;;;;;;;2.00;2.00;;;;;;;;5141345;27;45388;-76
2021/08/22 14:41:31;;;;;;;;;1.00;1.00;;;;;;;;5148094;27;45389;-77
2021/08/22 14:43:57;;;;;;;;;1.00;1.00;;;;;;;;5132120;27;45821;-82
2021/08/22 14:46:22;;;;;;;;;2.00;1.00;;;;;;;;5139913;27;47054;-78